Grant, Louisiana
Current Conditions -  °F | °C
As of 5:54 PM on Monday 20 Oct 2014 (Local Time) from KBKB Reporting Station
Clear Clear  
Wind Chill: 73°   Ceiling: Unl
Heat Index: 73°   Visibility: 10mi
Dew Point: 56°   Wind: 0mph
Humidity: 55%   Direction: NA
Pressure: 29.99"   Gusts: NA
Location:  30.79°N, 92.95°W
Report Text: KBKB 202254Z AUTO 00000KT 10SM CLR 23/13 A2999 RMK AO2 SLP184 T02280133
Loading
Personal Weather Stations






























Interactive Weather Map
Tropical Storm Tracking
New forecast layout! Learn more

10-Day Weather Forecast

Advertisements
Track Severe Weather on mobile